sensor_id;sensor_type;location;lat;lon;timestamp;pressure;altitude;pressure_sealevel;temperature;humidity
23616;BME280;11985;49.404;7.734;2022-10-15T00:00:17;96524.13;;;13.51;100.00
23616;BME280;11985;49.404;7.734;2022-10-15T00:02:19;96520.97;;;13.54;100.00
23616;BME280;11985;49.404;7.734;2022-10-15T00:04:21;96522.59;;;13.55;100.00
23616;BME280;11985;49.404;7.734;2022-10-15T05:51:48;96661.03;;;13.44;100.00
23616;BME280;11985;49.404;7.734;2022-10-15T06:26:18;96696.50;;;13.19;100.00
23616;BME280;11985;49.404;7.734;2022-10-15T06:28:20;96696.50;;;13.19;100.00
23616;BME280;11985;49.404;7.734;2022-10-15T06:30:21;96692.63;;;13.22;100.00
23616;BME280;11985;49.404;7.734;2022-10-15T06:32:23;96702.19;;;13.23;100.00
23616;BME280;11985;49.404;7.734;2022-10-15T06:34:25;96700.19;;;13.18;100.00
23616;BME280;11985;49.404;7.734;2022-10-15T06:36:26;96694.91;;;13.18;100.00
23616;BME280;11985;49.404;7.734;2022-10-15T06:38:28;96700.75;;;13.20;100.00
23616;BME280;11985;49.404;7.734;2022-10-15T06:40:30;96693.44;;;13.23;100.00
23616;BME280;11985;49.404;7.734;2022-10-15T06:42:33;96695.13;;;13.29;100.00
23616;BME280;11985;49.404;7.734;2022-10-15T06:44:35;96705.56;;;13.35;100.00
23616;BME280;11985;49.404;7.734;2022-10-15T06:46:37;96694.19;;;13.35;100.00
23616;BME280;11985;49.404;7.734;2022-10-15T06:48:38;96705.91;;;13.39;100.00
23616;BME280;11985;49.404;7.734;2022-10-15T06:50:40;96705.91;;;13.39;100.00
23616;BME280;11985;49.404;7.734;2022-10-15T06:52:42;96715.19;;;13.41;100.00
23616;BME280;11985;49.404;7.734;2022-10-15T06:54:43;96708.56;;;13.39;100.00
23616;BME280;11985;49.404;7.734;2022-10-15T06:56:45;96714.41;;;13.41;100.00
23616;BME280;11985;49.404;7.734;2022-10-15T06:58:48;96722.88;;;13.43;100.00
23616;BME280;11985;49.404;7.734;2022-10-15T07:00:49;96716.59;;;13.44;100.00
23616;BME280;11985;49.404;7.734;2022-10-15T07:02:51;96722.88;;;13.43;100.00
23616;BME280;11985;49.404;7.734;2022-10-15T07:04:53;96718.09;;;13.40;100.00
23616;BME280;11985;49.404;7.734;2022-10-15T07:06:55;96722.09;;;13.42;100.00
23616;BME280;11985;49.404;7.734;2022-10-15T07:08:56;96724.53;;;13.44;100.00
23616;BME280;11985;49.404;7.734;2022-10-15T07:10:59;96725.63;;;13.48;100.00
23616;BME280;11985;49.404;7.734;2022-10-15T07:13:01;96725.63;;;13.48;100.00
23616;BME280;11985;49.404;7.734;2022-10-15T07:15:05;96733.56;;;13.48;100.00
23616;BME280;11985;49.404;7.734;2022-10-15T07:17:07;96735.66;;;13.46;100.00
23616;BME280;11985;49.404;7.734;2022-10-15T07:19:11;96728.19;;;13.43;100.00
23616;BME280;11985;49.404;7.734;2022-10-15T07:21:12;96732.91;;;13.41;100.00
23616;BME280;11985;49.404;7.734;2022-10-15T07:23:14;96731.31;;;13.40;100.00
23616;BME280;11985;49.404;7.734;2022-10-15T07:25:16;96728.66;;;13.40;100.00
23616;BME280;11985;49.404;7.734;2022-10-15T07:27:17;96734.28;;;13.43;100.00
23616;BME280;11985;49.404;7.734;2022-10-15T07:29:19;96732.47;;;13.44;100.00
23616;BME280;11985;49.404;7.734;2022-10-15T07:31:23;96735.09;;;13.44;100.00
23616;BME280;11985;49.404;7.734;2022-10-15T07:33:24;96739.09;;;13.46;100.00
23616;BME280;11985;49.404;7.734;2022-10-15T07:35:27;96733.00;;;13.46;100.00
23616;BME280;11985;49.404;7.734;2022-10-15T07:37:29;96737.34;;;13.52;100.00
23616;BME280;11985;49.404;7.734;2022-10-15T07:39:30;96733.19;;;13.56;100.00
23616;BME280;11985;49.404;7.734;2022-10-15T07:41:32;96735.13;;;13.61;100.00
23616;BME280;11985;49.404;7.734;2022-10-15T07:43:34;96735.53;;;13.69;100.00
23616;BME280;11985;49.404;7.734;2022-10-15T07:45:36;96739.31;;;13.73;100.00
23616;BME280;11985;49.404;7.734;2022-10-15T07:47:40;96734.03;;;13.73;100.00
23616;BME280;11985;49.404;7.734;2022-10-15T07:49:41;96734.03;;;13.73;100.00
23616;BME280;11985;49.404;7.734;2022-10-15T07:51:43;96740.94;;;13.74;100.00
23616;BME280;11985;49.404;7.734;2022-10-15T07:53:45;96740.59;;;13.71;100.00
23616;BME280;11985;49.404;7.734;2022-10-15T07:55:46;96743.03;;;13.72;100.00
23616;BME280;11985;49.404;7.734;2022-10-15T07:57:48;96739.00;;;13.70;100.00
23616;BME280;11985;49.404;7.734;2022-10-15T07:59:49;96739.78;;;13.70;100.00
23616;BME280;11985;49.404;7.734;2022-10-15T08:01:51;96743.47;;;13.69;100.00
23616;BME280;11985;49.404;7.734;2022-10-15T08:03:54;96742.53;;;13.76;100.00
23616;BME280;11985;49.404;7.734;2022-10-15T08:05:58;96740.47;;;13.78;100.00
23616;BME280;11985;49.404;7.734;2022-10-15T08:07:59;96738.91;;;13.82;100.00
23616;BME280;11985;49.404;7.734;2022-10-15T08:10:01;96745.84;;;13.83;100.00
23616;BME280;11985;49.404;7.734;2022-10-15T08:12:04;96739.50;;;13.84;100.00
23616;BME280;11985;49.404;7.734;2022-10-15T08:14:06;96747.19;;;13.85;100.00
23616;BME280;11985;49.404;7.734;2022-10-15T08:16:09;96744.31;;;13.87;100.00
23616;BME280;11985;49.404;7.734;2022-10-15T08:18:11;96745.44;;;13.91;100.00
23616;BME280;11985;49.404;7.734;2022-10-15T08:20:14;96752.34;;;13.92;100.00
23616;BME280;11985;49.404;7.734;2022-10-15T08:22:16;96747.28;;;13.90;100.00
23616;BME280;11985;49.404;7.734;2022-10-15T08:24:18;96748.81;;;13.86;100.00
23616;BME280;11985;49.404;7.734;2022-10-15T08:26:19;96750.66;;;13.86;100.00
23616;BME280;11985;49.404;7.734;2022-10-15T08:28:21;96752.50;;;13.85;100.00
23616;BME280;11985;49.404;7.734;2022-10-15T08:30:23;96752.97;;;13.82;100.00
23616;BME280;11985;49.404;7.734;2022-10-15T08:32:27;96750.56;;;13.81;100.00
23616;BME280;11985;49.404;7.734;2022-10-15T08:34:29;96742.63;;;13.81;100.00
23616;BME280;11985;49.404;7.734;2022-10-15T08:36:32;96748.16;;;13.79;100.00
23616;BME280;11985;49.404;7.734;2022-10-15T08:38:34;96747.66;;;13.82;100.00
23616;BME280;11985;49.404;7.734;2022-10-15T08:40:35;96751.19;;;13.88;100.00
23616;BME280;11985;49.404;7.734;2022-10-15T08:42:40;96759.72;;;13.90;100.00
23616;BME280;11985;49.404;7.734;2022-10-15T08:44:45;96758.44;;;13.92;100.00
23616;BME280;11985;49.404;7.734;2022-10-15T08:46:49;96760.69;;;14.00;100.00
23616;BME280;11985;49.404;7.734;2022-10-15T08:48:54;96765.84;;;14.07;100.00
23616;BME280;11985;49.404;7.734;2022-10-15T08:50:58;96764.41;;;14.16;100.00
23616;BME280;11985;49.404;7.734;2022-10-15T08:53:04;96764.25;;;14.23;100.00
23616;BME280;11985;49.404;7.734;2022-10-15T08:55:07;96769.84;;;14.26;100.00
23616;BME280;11985;49.404;7.734;2022-10-15T08:57:18;96767.78;;;14.29;100.00
23616;BME280;11985;49.404;7.734;2022-10-15T08:59:29;96769.38;;;14.30;100.00
23616;BME280;11985;49.404;7.734;2022-10-15T09:01:38;96779.97;;;14.30;100.00
23616;BME280;11985;49.404;7.734;2022-10-15T09:03:50;96778.63;;;14.27;100.00
23616;BME280;11985;49.404;7.734;2022-10-15T09:05:58;96775.97;;;14.27;100.00
23616;BME280;11985;49.404;7.734;2022-10-15T09:08:16;96781.97;;;14.22;100.00
23616;BME280;11985;49.404;7.734;2022-10-15T09:10:27;96779.34;;;14.22;100.00
23616;BME280;11985;49.404;7.734;2022-10-15T09:12:41;96777.72;;;14.21;100.00
23616;BME280;11985;49.404;7.734;2022-10-15T09:14:46;96776.69;;;14.22;100.00
23616;BME280;11985;49.404;7.734;2022-10-15T09:16:49;96773.53;;;14.25;100.00
23616;BME280;11985;49.404;7.734;2022-10-15T09:18:51;96777.88;;;14.32;100.00
23616;BME280;11985;49.404;7.734;2022-10-15T09:20:56;96779.50;;;14.33;100.00
23616;BME280;11985;49.404;7.734;2022-10-15T09:23:09;96789.75;;;14.29;100.00
23616;BME280;11985;49.404;7.734;2022-10-15T09:25:17;96783.97;;;14.32;100.00
23616;BME280;11985;49.404;7.734;2022-10-15T09:27:25;96785.81;;;14.32;100.00
23616;BME280;11985;49.404;7.734;2022-10-15T09:29:37;96785.72;;;14.26;100.00
23616;BME280;11985;49.404;7.734;2022-10-15T09:31:43;96780.94;;;14.23;100.00
23616;BME280;11985;49.404;7.734;2022-10-15T09:33:51;96781.19;;;14.22;100.00
23616;BME280;11985;49.404;7.734;2022-10-15T09:36:00;96786.69;;;14.20;100.00
23616;BME280;11985;49.404;7.734;2022-10-15T09:38:18;96784.63;;;14.22;100.00
23616;BME280;11985;49.404;7.734;2022-10-15T09:40:34;96791.63;;;14.29;100.00
23616;BME280;11985;49.404;7.734;2022-10-15T09:42:41;96787.44;;;14.33;100.00
23616;BME280;11985;49.404;7.734;2022-10-15T09:44:44;96793.63;;;14.38;100.00
23616;BME280;11985;49.404;7.734;2022-10-15T09:46:49;96793.13;;;14.41;100.00
23616;BME280;11985;49.404;7.734;2022-10-15T09:48:55;96784.38;;;14.41;100.00
23616;BME280;11985;49.404;7.734;2022-10-15T09:51:06;96792.19;;;14.47;100.00
23616;BME280;11985;49.404;7.734;2022-10-15T09:53:17;96781.34;;;14.49;100.00
23616;BME280;11985;49.404;7.734;2022-10-15T09:55:33;96780.94;;;14.57;100.00
23616;BME280;11985;49.404;7.734;2022-10-15T09:57:37;96783.75;;;14.67;100.00
23616;BME280;11985;49.404;7.734;2022-10-15T09:59:51;96777.47;;;14.73;100.00
23616;BME280;11985;49.404;7.734;2022-10-15T10:01:58;96784.94;;;14.76;100.00
23616;BME280;11985;49.404;7.734;2022-10-15T10:04:11;96785.88;;;14.87;100.00
23616;BME280;11985;49.404;7.734;2022-10-15T10:06:14;96784.34;;;14.91;100.00
23616;BME280;11985;49.404;7.734;2022-10-15T10:08:19;96781.75;;;14.96;100.00
23616;BME280;11985;49.404;7.734;2022-10-15T10:10:25;96788.91;;;14.96;100.00
23616;BME280;11985;49.404;7.734;2022-10-15T10:12:31;96791.03;;;14.94;100.00
23616;BME280;11985;49.404;7.734;2022-10-15T10:14:35;96785.88;;;14.87;100.00
23616;BME280;11985;49.404;7.734;2022-10-15T10:17:03;96785.59;;;14.84;100.00
23616;BME280;11985;49.404;7.734;2022-10-15T10:19:12;96784.78;;;14.83;100.00
23616;BME280;11985;49.404;7.734;2022-10-15T10:21:23;96783.97;;;14.83;100.00
23616;BME280;11985;49.404;7.734;2022-10-15T10:23:31;96787.09;;;14.79;100.00
23616;BME280;11985;49.404;7.734;2022-10-15T10:25:36;96788.63;;;14.75;100.00
23616;BME280;11985;49.404;7.734;2022-10-15T10:27:44;96795.16;;;14.68;100.00
23616;BME280;11985;49.404;7.734;2022-10-15T10:29:49;96790.59;;;14.63;100.00
23616;BME280;11985;49.404;7.734;2022-10-15T10:31:52;96795.25;;;14.56;100.00
23616;BME280;11985;49.404;7.734;2022-10-15T10:33:53;96796.53;;;14.53;100.00
23616;BME280;11985;49.404;7.734;2022-10-15T10:35:56;96786.50;;;14.56;100.00
23616;BME280;11985;49.404;7.734;2022-10-15T10:37:58;96790.03;;;14.61;100.00
23616;BME280;11985;49.404;7.734;2022-10-15T10:39:59;96782.00;;;14.56;100.00
23616;BME280;11985;49.404;7.734;2022-10-15T10:42:02;96795.25;;;14.56;100.00
23616;BME280;11985;49.404;7.734;2022-10-15T10:44:18;96790.03;;;14.61;100.00
23616;BME280;11985;49.404;7.734;2022-10-15T10:46:21;96785.81;;;14.65;100.00
23616;BME280;11985;49.404;7.734;2022-10-15T10:48:26;96784.81;;;14.66;100.00
23616;BME280;11985;49.404;7.734;2022-10-15T10:50:45;96784.72;;;14.61;100.00
23616;BME280;11985;49.404;7.734;2022-10-15T10:52:57;96785.75;;;14.60;100.00
23616;BME280;11985;49.404;7.734;2022-10-15T10:55:00;96791.88;;;14.61;100.00
23616;BME280;11985;49.404;7.734;2022-10-15T10:57:03;96783.09;;;14.60;100.00
23616;BME280;11985;49.404;7.734;2022-10-15T10:59:14;96782.72;;;14.68;100.00
23616;BME280;11985;49.404;7.734;2022-10-15T11:01:18;96784.06;;;14.71;100.00
23616;BME280;11985;49.404;7.734;2022-10-15T11:03:27;96785.19;;;14.75;100.00
23616;BME280;11985;49.404;7.734;2022-10-15T11:05:35;96789.69;;;14.74;100.00
23616;BME280;11985;49.404;7.734;2022-10-15T11:07:46;96777.88;;;14.65;100.00
23616;BME280;11985;49.404;7.734;2022-10-15T11:09:56;96784.22;;;14.64;100.00
23616;BME280;11985;49.404;7.734;2022-10-15T11:12:09;96784.94;;;14.60;100.00
23616;BME280;11985;49.404;7.734;2022-10-15T11:14:22;96786.25;;;14.57;100.00
23616;BME280;11985;49.404;7.734;2022-10-15T11:16:33;96780.78;;;14.47;100.00
23616;BME280;11985;49.404;7.734;2022-10-15T11:18:53;96788.16;;;14.45;100.00
23616;BME280;11985;49.404;7.734;2022-10-15T11:21:05;96790.22;;;14.43;100.00
23616;BME280;11985;49.404;7.734;2022-10-15T11:23:23;96786.56;;;14.44;100.00
23616;BME280;11985;49.404;7.734;2022-10-15T11:25:35;96791.28;;;14.42;100.00
23616;BME280;11985;49.404;7.734;2022-10-15T11:27:50;96783.97;;;14.32;100.00
23616;BME280;11985;49.404;7.734;2022-10-15T11:29:57;96785.72;;;14.26;100.00
23616;BME280;11985;49.404;7.734;2022-10-15T11:32:12;96786.22;;;14.23;100.00
23616;BME280;11985;49.404;7.734;2022-10-15T11:34:26;96778.84;;;14.25;100.00
23616;BME280;11985;49.404;7.734;2022-10-15T11:36:38;96779.63;;;14.26;100.00
23616;BME280;11985;49.404;7.734;2022-10-15T11:38:44;96780.94;;;14.23;100.00
23616;BME280;11985;49.404;7.734;2022-10-15T11:40:57;96772.75;;;14.25;100.00
23616;BME280;11985;49.404;7.734;2022-10-15T11:43:06;96782.06;;;14.27;100.00
23616;BME280;11985;49.404;7.734;2022-10-15T11:45:31;96772.56;;;14.32;100.00
23616;BME280;11985;49.404;7.734;2022-10-15T11:47:43;96777.06;;;14.31;100.00
23616;BME280;11985;49.404;7.734;2022-10-15T11:49:57;96770.41;;;14.29;100.00
23616;BME280;11985;49.404;7.734;2022-10-15T11:52:22;96774.66;;;14.30;100.00
23616;BME280;11985;49.404;7.734;2022-10-15T11:54:30;96769.38;;;14.30;100.00
23616;BME280;11985;49.404;7.734;2022-10-15T11:56:38;96774.19;;;14.33;100.00
23616;BME280;11985;49.404;7.734;2022-10-15T11:58:44;96765.22;;;14.34;100.00
23616;BME280;11985;49.404;7.734;2022-10-15T12:00:52;96766.81;;;14.35;100.00
23616;BME280;11985;49.404;7.734;2022-10-15T12:03:01;96764.25;;;14.40;100.00
23616;BME280;11985;49.404;7.734;2022-10-15T12:05:16;96760.53;;;14.41;100.00
23616;BME280;11985;49.404;7.734;2022-10-15T12:07:24;96764.25;;;14.40;100.00
23616;BME280;11985;49.404;7.734;2022-10-15T12:09:30;96761.00;;;14.38;100.00
23616;BME280;11985;49.404;7.734;2022-10-15T12:11:42;96761.00;;;14.38;100.00
23616;BME280;11985;49.404;7.734;2022-10-15T12:13:52;96762.31;;;14.35;100.00
23616;BME280;11985;49.404;7.734;2022-10-15T12:16:02;96752.44;;;14.31;100.00
23616;BME280;11985;49.404;7.734;2022-10-15T12:18:16;96755.72;;;14.38;100.00
23616;BME280;11985;49.404;7.734;2022-10-15T12:20:22;96753.16;;;14.26;100.00
23616;BME280;11985;49.404;7.734;2022-10-15T12:22:32;96758.22;;;14.27;100.00
23616;BME280;11985;49.404;7.734;2022-10-15T12:24:58;96751.56;;;14.25;100.00
23616;BME280;11985;49.404;7.734;2022-10-15T12:27:14;96751.88;;;14.29;100.00
23616;BME280;11985;49.404;7.734;2022-10-15T12:29:19;96757.19;;;14.29;100.00
23616;BME280;11985;49.404;7.734;2022-10-15T12:31:24;96751.88;;;14.29;100.00
23616;BME280;11985;49.404;7.734;2022-10-15T12:33:32;96757.66;;;14.25;100.00
23616;BME280;11985;49.404;7.734;2022-10-15T12:35:41;96752.84;;;14.22;100.00
23616;BME280;11985;49.404;7.734;2022-10-15T12:37:44;96755.72;;;14.21;100.00
23616;BME280;11985;49.404;7.734;2022-10-15T12:39:53;96758.63;;;14.19;100.00
23616;BME280;11985;49.404;7.734;2022-10-15T12:41:55;96760.22;;;14.20;100.00
23616;BME280;11985;49.404;7.734;2022-10-15T12:44:04;96758.16;;;14.22;100.00
23616;BME280;11985;49.404;7.734;2022-10-15T12:46:08;96755.50;;;14.22;100.00
23616;BME280;11985;49.404;7.734;2022-10-15T12:48:20;96753.31;;;14.19;100.00
23616;BME280;11985;49.404;7.734;2022-10-15T12:50:23;96744.91;;;14.22;100.00
23616;BME280;11985;49.404;7.734;2022-10-15T12:52:51;96736.16;;;14.22;100.00
23616;BME280;11985;49.404;7.734;2022-10-15T12:55:17;96737.03;;;14.27;100.00
23616;BME280;11985;49.404;7.734;2022-10-15T12:57:56;96741.28;;;14.29;100.00
23616;BME280;11985;49.404;7.734;2022-10-15T12:59:59;96736.00;;;14.29;100.00
23616;BME280;11985;49.404;7.734;2022-10-15T13:02:02;96721.69;;;14.30;100.00
23616;BME280;11985;49.404;7.734;2022-10-15T13:04:05;96721.16;;;14.27;100.00
23616;BME280;11985;49.404;7.734;2022-10-15T13:06:13;96716.06;;;14.26;100.00
23616;BME280;11985;49.404;7.734;2022-10-15T13:08:25;96727.00;;;14.30;100.00
23616;BME280;11985;49.404;7.734;2022-10-15T13:10:33;96717.03;;;14.37;100.00
23616;BME280;11985;49.404;7.734;2022-10-15T13:12:35;96720.66;;;14.31;100.00
23616;BME280;11985;49.404;7.734;2022-10-15T13:14:42;96736.53;;;14.31;100.00
23616;BME280;11985;49.404;7.734;2022-10-15T13:16:49;96729.38;;;14.31;100.00
23616;BME280;11985;49.404;7.734;2022-10-15T13:18:53;96727.00;;;14.30;100.00
23616;BME280;11985;49.404;7.734;2022-10-15T13:20:58;96724.81;;;14.26;100.00
23616;BME280;11985;49.404;7.734;2022-10-15T13:23:08;96713.66;;;14.24;100.00
23616;BME280;11985;49.404;7.734;2022-10-15T13:25:15;96726.13;;;14.24;100.00
23616;BME280;11985;49.404;7.734;2022-10-15T13:27:22;96733.81;;;14.25;100.00
23616;BME280;11985;49.404;7.734;2022-10-15T13:29:27;96730.84;;;14.22;100.00
23616;BME280;11985;49.404;7.734;2022-10-15T13:31:30;96728.44;;;14.20;100.00
23616;BME280;11985;49.404;7.734;2022-10-15T13:33:33;96739.53;;;14.17;100.00
23616;BME280;11985;49.404;7.734;2022-10-15T13:35:39;96744.03;;;14.17;100.00
23616;BME280;11985;49.404;7.734;2022-10-15T13:37:43;96737.91;;;14.16;100.00
23616;BME280;11985;49.404;7.734;2022-10-15T13:39:49;96735.28;;;14.16;100.00
23616;BME280;11985;49.404;7.734;2022-10-15T13:42:06;96731.00;;;14.15;100.00
23616;BME280;11985;49.404;7.734;2022-10-15T13:44:19;96745.06;;;14.16;100.00
23616;BME280;11985;49.404;7.734;2022-10-15T13:46:22;96739.53;;;14.17;100.00
23616;BME280;11985;49.404;7.734;2022-10-15T13:48:26;96742.41;;;14.16;100.00
23616;BME280;11985;49.404;7.734;2022-10-15T13:50:29;96741.84;;;14.14;100.00
23616;BME280;11985;49.404;7.734;2022-10-15T13:52:32;96733.09;;;14.13;100.00
23616;BME280;11985;49.404;7.734;2022-10-15T13:55:08;96738.63;;;14.12;100.00
23616;BME280;11985;49.404;7.734;2022-10-15T13:57:17;96735.50;;;14.15;100.00
23616;BME280;11985;49.404;7.734;2022-10-15T13:59:19;96741.59;;;14.15;100.00
23616;BME280;11985;49.404;7.734;2022-10-15T14:01:22;96738.13;;;14.15;100.00
23616;BME280;11985;49.404;7.734;2022-10-15T14:03:27;96735.81;;;14.18;100.00
23616;BME280;11985;49.404;7.734;2022-10-15T14:05:30;96736.97;;;14.22;100.00
23616;BME280;11985;49.404;7.734;2022-10-15T14:07:31;96739.59;;;14.22;100.00
23616;BME280;11985;49.404;7.734;2022-10-15T14:09:36;96734.59;;;14.26;100.00
23616;BME280;11985;49.404;7.734;2022-10-15T14:11:42;96737.25;;;14.26;100.00
23616;BME280;11985;49.404;7.734;2022-10-15T14:13:45;96726.44;;;14.27;100.00
23616;BME280;11985;49.404;7.734;2022-10-15T14:16:13;96743.34;;;14.26;100.00
23616;BME280;11985;49.404;7.734;2022-10-15T14:18:17;96734.38;;;14.27;100.00
23616;BME280;11985;49.404;7.734;2022-10-15T14:20:27;96728.03;;;14.29;100.00
23616;BME280;11985;49.404;7.734;2022-10-15T14:22:29;96737.59;;;14.30;100.00
23616;BME280;11985;49.404;7.734;2022-10-15T14:24:31;96732.28;;;14.30;100.00
23616;BME280;11985;49.404;7.734;2022-10-15T14:26:35;96737.59;;;14.30;100.00
23616;BME280;11985;49.404;7.734;2022-10-15T14:28:40;96733.88;;;14.31;100.00
23616;BME280;11985;49.404;7.734;2022-10-15T14:30:42;96737.13;;;14.33;100.00
23616;BME280;11985;49.404;7.734;2022-10-15T14:32:46;96746.41;;;14.35;100.00
23616;BME280;11985;49.404;7.734;2022-10-15T14:34:48;96745.63;;;14.35;100.00
23616;BME280;11985;49.404;7.734;2022-10-15T14:36:50;96744.81;;;14.34;100.00
23616;BME280;11985;49.404;7.734;2022-10-15T14:38:52;96747.22;;;14.36;100.00
23616;BME280;11985;49.404;7.734;2022-10-15T14:40:58;96740.31;;;14.35;100.00
23616;BME280;11985;49.404;7.734;2022-10-15T14:43:03;96754.03;;;14.32;100.00
23616;BME280;11985;49.404;7.734;2022-10-15T14:45:12;96759.31;;;14.32;100.00
23616;BME280;11985;49.404;7.734;2022-10-15T14:47:19;96759.09;;;14.33;100.00
23616;BME280;11985;49.404;7.734;2022-10-15T14:49:24;96772.91;;;14.35;100.00
23616;BME280;11985;49.404;7.734;2022-10-15T14:51:27;96767.06;;;14.33;100.00
23616;BME280;11985;49.404;7.734;2022-10-15T14:53:31;96761.19;;;14.31;100.00
23616;BME280;11985;49.404;7.734;2022-10-15T14:55:38;96767.84;;;14.34;100.00
23616;BME280;11985;49.404;7.734;2022-10-15T14:57:43;96762.78;;;14.32;100.00
23616;BME280;11985;49.404;7.734;2022-10-15T14:59:47;96770.50;;;14.34;100.00
23616;BME280;11985;49.404;7.734;2022-10-15T15:01:58;96772.09;;;14.35;100.00
23616;BME280;11985;49.404;7.734;2022-10-15T15:04:00;96768.41;;;14.36;100.00
23616;BME280;11985;49.404;7.734;2022-10-15T15:06:02;96765.22;;;14.34;100.00
23616;BME280;11985;49.404;7.734;2022-10-15T15:08:04;96767.59;;;14.35;100.00
23616;BME280;11985;49.404;7.734;2022-10-15T15:10:07;96762.31;;;14.35;100.00
23616;BME280;11985;49.404;7.734;2022-10-15T15:12:15;96768.41;;;14.36;100.00
23616;BME280;11985;49.404;7.734;2022-10-15T15:14:21;96763.44;;;14.39;100.00
23616;BME280;11985;49.404;7.734;2022-10-15T15:16:24;96754.69;;;14.39;100.00
23616;BME280;11985;49.404;7.734;2022-10-15T15:18:27;96751.47;;;14.37;100.00
23616;BME280;11985;49.404;7.734;2022-10-15T15:20:29;96748.00;;;14.36;100.00
23616;BME280;11985;49.404;7.734;2022-10-15T15:22:32;96748.81;;;14.37;100.00
23616;BME280;11985;49.404;7.734;2022-10-15T15:24:34;96754.69;;;14.39;100.00
23616;BME280;11985;49.404;7.734;2022-10-15T15:26:35;96758.94;;;14.40;100.00
23616;BME280;11985;49.404;7.734;2022-10-15T15:28:37;96753.38;;;14.41;100.00
23616;BME280;11985;49.404;7.734;2022-10-15T15:30:40;96753.63;;;14.40;100.00
23616;BME280;11985;49.404;7.734;2022-10-15T15:32:42;96740.94;;;14.42;100.00
23616;BME280;11985;49.404;7.734;2022-10-15T15:34:47;96741.75;;;14.42;100.00
23616;BME280;11985;49.404;7.734;2022-10-15T15:36:49;96753.13;;;14.43;100.00
23616;BME280;11985;49.404;7.734;2022-10-15T15:38:50;96757.88;;;14.41;100.00
23616;BME280;11985;49.404;7.734;2022-10-15T15:40:52;96758.94;;;14.40;100.00
23616;BME280;11985;49.404;7.734;2022-10-15T15:42:54;96754.69;;;14.39;100.00
23616;BME280;11985;49.404;7.734;2022-10-15T15:44:55;96755.72;;;14.38;100.00
23616;BME280;11985;49.404;7.734;2022-10-15T15:46:57;96757.00;;;14.35;100.00
23616;BME280;11985;49.404;7.734;2022-10-15T15:48:58;96759.09;;;14.33;100.00
23616;BME280;11985;49.404;7.734;2022-10-15T15:51:04;96755.72;;;14.38;100.00
23616;BME280;11985;49.404;7.734;2022-10-15T15:53:07;96770.81;;;14.37;100.00
23616;BME280;11985;49.404;7.734;2022-10-15T15:55:09;96768.41;;;14.36;100.00
23616;BME280;11985;49.404;7.734;2022-10-15T15:57:14;96770.50;;;14.34;100.00
23616;BME280;11985;49.404;7.734;2022-10-15T15:59:16;96772.56;;;14.32;100.00
23616;BME280;11985;49.404;7.734;2022-10-15T16:01:19;96778.38;;;14.29;100.00
23616;BME280;11985;49.404;7.734;2022-10-15T16:03:20;96785.25;;;14.30;100.00
23616;BME280;11985;49.404;7.734;2022-10-15T16:05:22;96784.72;;;14.27;100.00
23616;BME280;11985;49.404;7.734;2022-10-15T16:07:26;96784.94;;;14.26;100.00
23616;BME280;11985;49.404;7.734;2022-10-15T16:09:27;96787.84;;;14.24;100.00
23616;BME280;11985;49.404;7.734;2022-10-15T16:11:29;96773.00;;;14.23;100.00
23616;BME280;11985;49.404;7.734;2022-10-15T16:13:31;96778.53;;;14.22;100.00
23616;BME280;11985;49.404;7.734;2022-10-15T16:15:33;96783.03;;;14.21;100.00
23616;BME280;11985;49.404;7.734;2022-10-15T16:17:35;96774.84;;;14.23;100.00
23616;BME280;11985;49.404;7.734;2022-10-15T16:19:36;96771.94;;;14.24;100.00
23616;BME280;11985;49.404;7.734;2022-10-15T16:21:38;96774.03;;;14.22;100.00
23616;BME280;11985;49.404;7.734;2022-10-15T16:23:41;96773.78;;;14.24;100.00
23616;BME280;11985;49.404;7.734;2022-10-15T16:25:42;96767.69;;;14.23;100.00
23616;BME280;11985;49.404;7.734;2022-10-15T16:27:44;96776.09;;;14.20;100.00
23616;BME280;11985;49.404;7.734;2022-10-15T16:29:47;96782.19;;;14.21;100.00
23616;BME280;11985;49.404;7.734;2022-10-15T16:31:49;96780.84;;;14.18;100.00
23616;BME280;11985;49.404;7.734;2022-10-15T16:33:51;96785.09;;;14.19;100.00
23616;BME280;11985;49.404;7.734;2022-10-15T16:35:54;96786.16;;;14.18;100.00
23616;BME280;11985;49.404;7.734;2022-10-15T16:37:56;96783.50;;;14.18;100.00
23616;BME280;11985;49.404;7.734;2022-10-15T16:40:02;96785.09;;;14.19;100.00
23616;BME280;11985;49.404;7.734;2022-10-15T16:42:04;96794.19;;;14.23;100.00
23616;BME280;11985;49.404;7.734;2022-10-15T16:44:06;96800.03;;;14.25;100.00
23616;BME280;11985;49.404;7.734;2022-10-15T16:46:07;96795.88;;;14.30;100.00
23616;BME280;11985;49.404;7.734;2022-10-15T16:48:09;96794.25;;;14.29;100.00
23616;BME280;11985;49.404;7.734;2022-10-15T16:50:10;96809.56;;;14.26;100.00
23616;BME280;11985;49.404;7.734;2022-10-15T16:52:12;96805.66;;;14.29;100.00
23616;BME280;11985;49.404;7.734;2022-10-15T16:54:13;96813.59;;;14.29;100.00
23616;BME280;11985;49.404;7.734;2022-10-15T16:56:17;96808.06;;;14.31;100.00
23616;BME280;11985;49.404;7.734;2022-10-15T16:58:19;96810.16;;;14.29;100.00
23616;BME280;11985;49.404;7.734;2022-10-15T17:00:21;96808.56;;;14.27;100.00
23616;BME280;11985;49.404;7.734;2022-10-15T17:02:22;96817.06;;;14.30;100.00
23616;BME280;11985;49.404;7.734;2022-10-15T17:04:24;96817.06;;;14.30;100.00
23616;BME280;11985;49.404;7.734;2022-10-15T17:06:27;96822.09;;;14.31;100.00
23616;BME280;11985;49.404;7.734;2022-10-15T17:08:34;96819.78;;;14.35;100.00
23616;BME280;11985;49.404;7.734;2022-10-15T17:10:40;96827.19;;;14.33;100.00
23616;BME280;11985;49.404;7.734;2022-10-15T17:12:43;96829.84;;;14.33;100.00
23616;BME280;11985;49.404;7.734;2022-10-15T17:14:49;96831.66;;;14.32;100.00